Time;durP1;ratioP1;P1;durP2;ratioP2;P2;SDS_P1;SDS_P2;PMS_P1;PMS_P2;Temp;Humidity;BMP_temperature;BMP_pressure;BME280_temperature;BME280_humidity;BME280_pressure;Samples;Min_cycle;Max_cycle;Signal;HPM_P1;HPM_P2
2023/09/22 00:00:32;;;;;;;11.02;4.50;;;8.00;99.90;;;;;;5108729;28;20410;-55
2023/09/22 00:03:00;;;;;;;10.90;4.22;;;8.00;99.90;;;;;;5112681;27;20047;-55
2023/09/22 00:05:27;;;;;;;10.75;4.65;;;7.90;99.90;;;;;;5129981;27;20043;-55
2023/09/22 00:07:55;;;;;;;9.40;5.25;;;7.90;99.90;;;;;;5120956;27;20043;-56
2023/09/22 00:10:23;;;;;;;10.95;5.40;;;7.90;99.90;;;;;;5097416;28;20048;-55
2023/09/22 00:12:51;;;;;;;11.77;6.18;;;7.90;99.90;;;;;;5108693;27;20043;-55
2023/09/22 00:15:20;;;;;;;11.52;6.28;;;7.80;99.90;;;;;;5113274;27;20423;-55
2023/09/22 00:17:48;;;;;;;10.30;5.30;;;7.80;99.90;;;;;;5109756;28;20392;-54
2023/09/22 00:20:16;;;;;;;12.63;4.93;;;7.80;99.90;;;;;;5122341;27;20058;-56
2023/09/22 00:22:44;;;;;;;8.38;4.18;;;7.70;99.90;;;;;;5128732;27;20132;-55
2023/09/22 00:25:13;;;;;;;9.38;4.40;;;7.70;99.90;;;;;;5104951;27;20385;-55
2023/09/22 00:27:41;;;;;;;6.35;4.05;;;7.70;99.90;;;;;;5109646;27;20075;-55
2023/09/22 00:30:10;;;;;;;6.80;4.55;;;7.70;99.90;;;;;;5098708;27;20247;-55
2023/09/22 00:32:41;;;;;;;12.60;4.43;;;7.70;99.90;;;;;;5108168;28;20475;-55
2023/09/22 00:35:12;;;;;;;6.47;3.83;;;7.70;99.90;;;;;;5129416;27;20512;-54
2023/09/22 00:37:40;;;;;;;8.50;4.72;;;7.70;99.90;;;;;;5109967;27;20043;-55
2023/09/22 00:40:09;;;;;;;8.65;4.13;;;7.60;99.90;;;;;;5104125;28;20498;-55
2023/09/22 00:42:37;;;;;;;7.63;4.07;;;7.60;99.90;;;;;;5108157;28;20043;-55
2023/09/22 00:45:06;;;;;;;6.70;3.88;;;7.50;99.90;;;;;;5112845;27;20040;-55
2023/09/22 00:47:34;;;;;;;9.10;4.47;;;7.50;99.90;;;;;;5087383;28;20035;-55
2023/09/22 00:50:03;;;;;;;6.40;3.78;;;7.50;99.90;;;;;;5114500;27;20064;-55
2023/09/22 00:52:34;;;;;;;8.35;3.80;;;7.50;99.90;;;;;;5107901;28;20043;-54
2023/09/22 00:55:05;;;;;;;8.48;3.72;;;7.50;99.90;;;;;;5094695;28;20052;-54
2023/09/22 00:57:33;;;;;;;8.38;3.88;;;7.40;99.90;;;;;;5086997;28;20051;-54
2023/09/22 01:00:01;;;;;;;8.25;4.45;;;7.40;99.90;;;;;;5108169;28;20402;-55
2023/09/22 01:02:29;;;;;;;6.65;4.93;;;7.40;99.90;;;;;;5101311;28;20051;-55
2023/09/22 01:04:58;;;;;;;9.10;4.50;;;7.30;99.90;;;;;;5114917;27;20054;-56
2023/09/22 01:07:26;;;;;;;8.00;4.32;;;7.30;99.90;;;;;;5127136;27;20058;-56
2023/09/22 01:09:53;;;;;;;9.57;4.72;;;7.30;99.90;;;;;;5118414;27;20051;-56
2023/09/22 01:12:21;;;;;;;8.68;4.65;;;7.30;99.90;;;;;;5112051;27;20048;-55
2023/09/22 01:14:49;;;;;;;10.30;4.97;;;7.30;99.90;;;;;;5114382;27;20542;-56
2023/09/22 01:17:18;;;;;;;9.55;4.53;;;7.20;99.90;;;;;;5090138;28;20121;-56
2023/09/22 01:19:46;;;;;;;11.25;4.95;;;7.20;99.90;;;;;;5113811;27;20043;-55
2023/09/22 01:22:13;;;;;;;12.20;4.97;;;7.20;99.90;;;;;;5112290;27;20058;-55
2023/09/22 01:24:41;;;;;;;10.07;5.15;;;7.20;99.90;;;;;;5119931;27;20080;-55
2023/09/22 01:27:09;;;;;;;11.32;5.55;;;7.10;99.90;;;;;;5088485;28;20051;-55
2023/09/22 01:29:37;;;;;;;13.40;6.25;;;7.10;99.90;;;;;;5103740;28;20348;-55
2023/09/22 01:32:09;;;;;;;12.50;6.45;;;7.10;99.90;;;;;;5100798;28;20051;-54
2023/09/22 01:34:37;;;;;;;14.15;6.80;;;7.10;99.90;;;;;;5112327;27;20121;-55
2023/09/22 01:37:07;;;;;;;12.23;6.75;;;7.10;99.90;;;;;;5114823;27;20486;-55
2023/09/22 01:39:35;;;;;;;16.63;7.50;;;7.00;99.90;;;;;;5128497;28;20058;-55
2023/09/22 01:42:03;;;;;;;14.52;8.15;;;7.10;99.90;;;;;;5125335;28;20051;-55
2023/09/22 01:44:31;;;;;;;15.93;8.15;;;7.10;99.90;;;;;;5110258;28;20035;-55
2023/09/22 01:46:58;;;;;;;15.40;9.05;;;7.00;99.90;;;;;;5108753;28;20051;-55
2023/09/22 01:49:26;;;;;;;16.88;8.13;;;7.00;99.90;;;;;;5105962;27;20088;-55
2023/09/22 01:51:54;;;;;;;13.02;7.35;;;7.00;99.90;;;;;;5129560;27;20038;-55
2023/09/22 01:54:22;;;;;;;21.73;7.85;;;7.00;99.90;;;;;;5102958;28;20473;-54
2023/09/22 01:56:50;;;;;;;17.15;7.05;;;7.00;99.90;;;;;;5094285;28;20056;-55
2023/09/22 01:59:17;;;;;;;14.27;7.40;;;7.00;99.90;;;;;;5105026;27;20054;-54
2023/09/22 02:01:45;;;;;;;14.65;6.88;;;7.00;99.90;;;;;;5112197;28;20051;-55
2023/09/22 02:04:13;;;;;;;13.15;7.53;;;7.00;99.90;;;;;;5112461;28;20046;-55
2023/09/22 02:06:42;;;;;;;16.48;7.10;;;7.00;99.90;;;;;;5131451;27;20057;-55
2023/09/22 02:09:09;;;;;;;15.82;6.72;;;7.00;99.90;;;;;;5131161;27;20051;-55
2023/09/22 02:11:37;;;;;;;13.45;6.72;;;7.00;99.90;;;;;;5102750;27;20064;-54
2023/09/22 02:14:05;;;;;;;16.10;7.18;;;7.00;99.90;;;;;;5110276;28;20510;-55
2023/09/22 02:16:32;;;;;;;11.63;6.35;;;7.00;99.90;;;;;;5104589;27;20046;-55
2023/09/22 02:19:00;;;;;;;12.00;6.70;;;7.00;99.90;;;;;;5122682;27;20054;-55
2023/09/22 02:21:28;;;;;;;7.90;5.50;;;6.90;99.90;;;;;;5118003;27;20395;-55
2023/09/22 02:23:56;;;;;;;10.70;5.93;;;7.00;99.90;;;;;;5110704;28;20074;-55
2023/09/22 02:26:24;;;;;;;13.18;5.88;;;7.00;99.90;;;;;;5110950;28;20047;-55
2023/09/22 02:28:53;;;;;;;8.73;5.30;;;7.00;99.90;;;;;;5115573;27;20055;-54
2023/09/22 02:31:21;;;;;;;9.10;4.75;;;7.00;99.90;;;;;;5130967;27;20047;-54
2023/09/22 02:33:49;;;;;;;8.73;5.30;;;6.90;99.90;;;;;;5110495;28;20047;-55
2023/09/22 02:36:19;;;;;;;7.53;4.55;;;7.00;99.90;;;;;;5126508;27;20529;-55
2023/09/22 02:38:47;;;;;;;11.57;5.28;;;6.90;99.90;;;;;;5132237;27;20039;-55
2023/09/22 02:41:15;;;;;;;10.63;5.25;;;6.90;99.90;;;;;;5122214;27;20051;-54
2023/09/22 02:43:43;;;;;;;8.75;5.60;;;6.90;99.90;;;;;;5110220;28;20039;-54
2023/09/22 02:46:10;;;;;;;9.77;5.82;;;6.90;99.90;;;;;;5090175;28;20043;-55
2023/09/22 02:48:38;;;;;;;13.20;5.95;;;6.90;99.90;;;;;;5093987;27;20047;-55
2023/09/22 02:51:07;;;;;;;9.10;5.22;;;6.90;99.90;;;;;;5116167;27;20408;-55
2023/09/22 02:53:35;;;;;;;10.73;6.13;;;6.90;99.90;;;;;;5114135;27;20047;-55
2023/09/22 02:56:05;;;;;;;9.85;5.63;;;6.80;99.90;;;;;;5110096;28;20300;-56
2023/09/22 02:58:33;;;;;;;;;;;6.80;99.90;;;;;;5111564;27;20051;-55
2023/09/22 03:01:00;;;;;;;13.57;6.63;;;6.80;99.90;;;;;;5108329;28;19924;-54
2023/09/22 03:03:32;;;;;;;11.05;6.13;;;6.80;99.90;;;;;;5101077;28;20226;-55
2023/09/22 03:06:00;;;;;;;10.40;6.03;;;6.80;99.90;;;;;;5106027;27;20089;-55
2023/09/22 03:08:29;;;;;;;10.10;5.40;;;6.80;99.90;;;;;;5095063;28;20119;-55
2023/09/22 03:10:57;;;;;;;9.32;5.25;;;6.70;99.90;;;;;;5089174;28;20530;-55
2023/09/22 03:13:25;;;;;;;9.52;5.38;;;6.70;99.90;;;;;;5103038;28;20040;-55
2023/09/22 03:15:53;;;;;;;10.13;5.53;;;6.70;99.90;;;;;;5104974;28;20032;-55
2023/09/22 03:18:21;;;;;;;12.00;5.07;;;6.70;99.90;;;;;;5105991;28;20048;-55
2023/09/22 03:20:50;;;;;;;11.63;6.10;;;6.70;99.90;;;;;;5099521;27;20040;-55
2023/09/22 03:23:18;;;;;;;9.43;5.45;;;6.70;99.90;;;;;;5105249;28;20490;-54
2023/09/22 03:25:47;;;;;;;12.83;6.00;;;6.80;99.90;;;;;;5105921;28;20058;-54
2023/09/22 03:28:16;;;;;;;11.13;5.15;;;6.80;99.90;;;;;;5106595;27;20055;-55
2023/09/22 03:30:43;;;;;;;10.52;5.70;;;6.90;99.90;;;;;;5096630;28;20377;-54
2023/09/22 03:33:11;;;;;;;11.68;5.40;;;7.00;99.90;;;;;;5105755;28;20052;-55
2023/09/22 03:35:40;;;;;;;9.93;5.70;;;7.10;99.90;;;;;;5105993;27;20522;-55
2023/09/22 03:38:09;;;;;;;11.07;5.40;;;7.20;99.90;;;;;;5104306;28;20044;-56
2023/09/22 03:40:41;;;;;;;10.13;4.97;;;7.30;99.90;;;;;;5088835;28;20051;-56
2023/09/22 03:43:09;;;;;;;9.20;5.20;;;7.30;99.90;;;;;;5108097;28;20044;-56
2023/09/22 03:45:37;;;;;;;8.13;5.07;;;7.40;99.90;;;;;;5102946;28;20048;-55
2023/09/22 03:48:05;;;;;;;9.52;4.85;;;7.50;99.90;;;;;;5094733;27;20042;-55
2023/09/22 03:50:33;;;;;;;9.63;4.75;;;7.50;99.90;;;;;;5109355;27;20043;-55
2023/09/22 03:53:01;;;;;;;6.93;4.70;;;7.60;99.90;;;;;;5095315;27;20039;-55
2023/09/22 03:55:30;;;;;;;10.13;5.22;;;7.60;99.90;;;;;;5088615;27;20044;-56
2023/09/22 03:57:58;;;;;;;8.02;5.70;;;7.70;99.90;;;;;;5097927;27;20056;-55
2023/09/22 04:00:28;;;;;;;7.78;4.88;;;7.60;99.90;;;;;;5094457;27;20052;-55
2023/09/22 04:02:56;;;;;;;7.97;4.97;;;7.70;99.90;;;;;;5091317;28;20502;-55
2023/09/22 04:05:24;;;;;;;7.35;4.65;;;7.70;99.90;;;;;;5116782;27;20051;-55
2023/09/22 04:07:54;;;;;;;7.43;5.32;;;7.80;99.90;;;;;;5107527;27;20054;-54
2023/09/22 04:10:22;;;;;;;8.63;4.97;;;7.80;99.90;;;;;;5109809;28;20054;-54
2023/09/22 04:12:52;;;;;;;6.95;4.40;;;7.90;99.90;;;;;;5078026;28;20048;-55
2023/09/22 04:15:22;;;;;;;8.85;4.65;;;8.00;99.90;;;;;;5086840;28;20063;-55
2023/09/22 04:17:51;;;;;;;9.70;4.40;;;7.90;99.90;;;;;;5091475;28;20051;-55
2023/09/22 04:20:29;;;;;;;10.50;6.25;;;8.00;99.90;;;;;;5111288;27;20156;-55
2023/09/22 04:22:58;;;;;;;10.82;5.10;;;8.00;99.90;;;;;;5117475;27;20051;-55
2023/09/22 04:25:29;;;;;;;8.60;5.32;;;8.00;99.90;;;;;;5111361;28;20055;-55
2023/09/22 04:28:07;;;;;;;9.05;5.50;;;8.00;99.90;;;;;;5109941;28;20043;-56
2023/09/22 04:30:36;;;;;;;8.93;5.20;;;8.00;99.90;;;;;;5111758;28;20051;-55
2023/09/22 04:33:05;;;;;;;8.90;5.40;;;8.00;99.90;;;;;;5108060;28;20044;-54
2023/09/22 04:35:32;;;;;;;9.25;5.65;;;7.90;99.90;;;;;;5118036;27;20047;-55
2023/09/22 04:38:04;;;;;;;8.85;4.25;;;7.90;99.90;;;;;;5110480;28;20047;-55
2023/09/22 04:40:38;;;;;;;5.85;3.47;;;7.90;99.90;;;;;;5110411;28;20047;-55
2023/09/22 04:43:11;;;;;;;5.65;2.42;;;7.90;99.90;;;;;;5108406;28;22168;-55
2023/09/22 04:45:45;;;;;;;8.85;2.33;;;7.90;99.90;;;;;;5098918;28;20043;-55
2023/09/22 04:48:13;;;;;;;4.63;2.25;;;7.90;99.90;;;;;;5103090;27;20055;-55
2023/09/22 04:50:42;;;;;;;7.03;1.70;;;7.90;99.90;;;;;;5097874;27;20411;-56
2023/09/22 04:53:10;;;;;;;2.77;1.40;;;7.90;99.90;;;;;;5109091;28;20509;-55
2023/09/22 04:55:38;;;;;;;5.07;1.58;;;8.00;99.90;;;;;;5107649;28;20074;-55
2023/09/22 04:58:07;;;;;;;4.13;2.20;;;8.00;99.90;;;;;;5108731;28;20056;-55
2023/09/22 05:00:36;;;;;;;1.95;1.25;;;8.00;99.90;;;;;;5101313;28;20048;-55
2023/09/22 05:03:05;;;;;;;7.88;1.33;;;8.20;99.90;;;;;;5094139;27;20070;-55
2023/09/22 05:05:33;;;;;;;2.67;1.30;;;8.20;99.90;;;;;;5103633;27;20043;-54
2023/09/22 05:08:01;;;;;;;4.35;1.40;;;8.30;99.90;;;;;;5111182;27;20039;-55
2023/09/22 05:10:31;;;;;;;2.15;1.17;;;8.30;99.90;;;;;;5126358;27;20048;-55
2023/09/22 05:12:59;;;;;;;4.38;1.50;;;8.40;99.90;;;;;;5117558;27;20055;-55
2023/09/22 05:15:29;;;;;;;4.57;1.30;;;8.40;99.90;;;;;;5104955;28;20380;-55
2023/09/22 05:17:57;;;;;;;2.17;1.23;;;8.40;99.90;;;;;;5102744;28;20435;-55
2023/09/22 05:20:25;;;;;;;2.15;1.40;;;8.50;99.90;;;;;;5104931;28;20050;-55
2023/09/22 05:22:52;;;;;;;1.85;1.15;;;8.50;99.90;;;;;;5120316;27;20062;-54
2023/09/22 05:25:20;;;;;;;1.63;1.20;;;8.60;99.90;;;;;;5107173;28;20058;-55
2023/09/22 05:27:48;;;;;;;8.45;1.42;;;8.60;99.90;;;;;;5105053;28;20506;-55
2023/09/22 05:30:15;;;;;;;4.45;1.27;;;8.60;99.90;;;;;;5105261;28;20059;-55
2023/09/22 05:32:43;;;;;;;3.53;1.15;;;8.70;99.90;;;;;;5111300;27;20438;-55
2023/09/22 05:35:11;;;;;;;2.42;1.20;;;8.70;99.90;;;;;;5107740;27;20051;-56
2023/09/22 05:37:39;;;;;;;2.28;1.30;;;8.60;99.90;;;;;;5116217;27;20405;-54
2023/09/22 05:40:12;;;;;;;3.92;1.08;;;8.70;99.90;;;;;;5088149;28;20052;-54
2023/09/22 05:42:42;;;;;;;4.53;1.30;;;8.70;99.90;;;;;;5089817;28;20044;-55
2023/09/22 05:45:11;;;;;;;3.70;1.10;;;8.70;99.90;;;;;;5104701;28;20479;-55
2023/09/22 05:47:39;;;;;;;2.47;0.98;;;8.60;99.90;;;;;;5107805;28;20149;-55
2023/09/22 05:50:10;;;;;;;5.57;1.13;;;8.60;99.90;;;;;;5092906;28;20051;-55
2023/09/22 05:52:38;;;;;;;4.72;1.05;;;8.60;99.90;;;;;;5098500;28;20056;-55
2023/09/22 05:55:10;;;;;;;3.15;0.77;;;8.60;99.90;;;;;;5087028;28;20054;-55
2023/09/22 05:57:38;;;;;;;3.28;1.10;;;8.60;99.90;;;;;;5102935;28;20063;-55
2023/09/22 06:00:10;;;;;;;2.15;0.95;;;8.70;99.90;;;;;;5104301;28;20390;-56
2023/09/22 06:02:37;;;;;;;4.85;1.40;;;8.70;99.90;;;;;;5102770;28;20060;-56
2023/09/22 06:05:06;;;;;;;7.13;1.23;;;8.70;99.90;;;;;;5092508;28;20035;-55
2023/09/22 06:07:35;;;;;;;4.80;1.30;;;8.70;99.90;;;;;;5103100;28;20052;-55
2023/09/22 06:10:05;;;;;;;7.00;1.30;;;8.70;99.90;;;;;;5090917;28;20051;-54
2023/09/22 06:12:33;;;;;;;;;;;8.60;99.90;;;;;;5105035;28;20059;-54
2023/09/22 06:15:00;;;;;;;4.07;1.40;;;8.70;99.90;;;;;;5121566;28;20298;-55
2023/09/22 06:17:28;;;;;;;4.13;1.45;;;8.60;99.90;;;;;;5104225;28;20056;-55
2023/09/22 06:19:56;;;;;;;2.90;1.30;;;8.60;99.90;;;;;;5103742;28;20032;-56
2023/09/22 06:22:24;;;;;;;2.60;0.98;;;8.60;99.90;;;;;;5111048;28;20051;-56
2023/09/22 06:24:53;;;;;;;3.22;1.20;;;8.60;99.90;;;;;;5104088;28;20048;-55
2023/09/22 06:27:21;;;;;;;3.65;1.20;;;8.60;99.90;;;;;;5085850;28;20047;-56
2023/09/22 06:29:49;;;;;;;3.85;1.20;;;8.60;99.90;;;;;;5102518;28;20055;-55
2023/09/22 06:32:18;;;;;;;3.05;1.40;;;8.60;99.90;;;;;;5091317;28;20067;-55
2023/09/22 06:34:45;;;;;;;4.07;1.27;;;8.70;99.90;;;;;;5093609;28;20043;-55
2023/09/22 06:37:13;;;;;;;4.63;2.00;;;8.70;99.90;;;;;;5099570;28;20399;-56
2023/09/22 06:39:42;;;;;;;3.97;1.35;;;8.70;99.90;;;;;;5106310;28;20055;-55
2023/09/22 06:42:10;;;;;;;3.20;1.27;;;8.80;99.90;;;;;;5107260;27;20066;-57
2023/09/22 06:44:38;;;;;;;4.35;1.80;;;8.80;99.90;;;;;;5109590;27;20036;-55
2023/09/22 06:47:06;;;;;;;9.77;1.38;;;8.80;99.90;;;;;;5109627;27;20056;-55
2023/09/22 06:49:35;;;;;;;3.05;1.58;;;8.90;99.90;;;;;;5089731;27;20051;-57
2023/09/22 06:52:06;;;;;;;4.05;1.70;;;9.00;99.90;;;;;;5093608;27;20483;-56
2023/09/22 06:54:33;;;;;;;;;;;9.00;99.90;;;;;;5095165;27;20040;-56
2023/09/22 06:57:01;;;;;;;3.50;1.60;;;9.10;99.90;;;;;;5086857;27;19924;-55
2023/09/22 06:59:29;;;;;;;2.78;1.33;;;9.20;99.90;;;;;;5088330;27;20047;-56
2023/09/22 07:01:57;;;;;;;5.07;1.38;;;9.30;99.90;;;;;;5093628;27;20494;-55
2023/09/22 07:04:24;;;;;;;2.97;1.45;;;9.40;99.90;;;;;;5095913;27;20048;-56
2023/09/22 07:06:52;;;;;;;6.68;1.35;;;9.40;99.90;;;;;;5090577;28;20080;-56
2023/09/22 07:09:20;;;;;;;4.03;1.73;;;9.50;99.90;;;;;;5099701;27;20055;-55
2023/09/22 07:11:48;;;;;;;5.10;1.20;;;9.60;99.90;;;;;;5091297;28;20044;-56
2023/09/22 07:14:15;;;;;;;2.28;1.10;;;9.70;99.90;;;;;;5114151;27;20051;-56
2023/09/22 07:16:44;;;;;;;4.38;1.30;;;9.80;99.90;;;;;;5101654;28;20039;-56
2023/09/22 07:19:12;;;;;;;5.57;1.92;;;9.90;99.90;;;;;;5094538;28;20044;-55
2023/09/22 07:21:40;;;;;;;3.42;1.38;;;10.00;99.90;;;;;;5077416;27;20043;-55
2023/09/22 07:24:08;;;;;;;6.85;1.40;;;10.10;99.90;;;;;;5124438;27;20047;-55
2023/09/22 07:26:35;;;;;;;5.57;1.30;;;10.20;99.90;;;;;;5096698;27;20047;-55
2023/09/22 07:29:03;;;;;;;4.43;1.02;;;10.30;99.90;;;;;;5092883;27;20055;-55
2023/09/22 07:31:31;;;;;;;5.10;1.25;;;10.40;99.90;;;;;;5086887;27;20626;-56
2023/09/22 07:33:59;;;;;;;5.38;1.10;;;10.50;99.90;;;;;;5093840;27;20044;-56
2023/09/22 07:36:27;;;;;;;11.93;1.30;;;10.50;99.90;;;;;;5106799;27;20035;-56
2023/09/22 07:38:55;;;;;;;3.92;1.25;;;10.60;99.90;;;;;;5106886;28;20054;-56
2023/09/22 07:41:23;;;;;;;6.95;1.38;;;10.60;99.90;;;;;;5107394;28;20035;-56
2023/09/22 07:43:52;;;;;;;7.53;1.70;;;10.60;99.90;;;;;;5116528;27;20541;-56
2023/09/22 07:46:22;;;;;;;2.35;1.05;;;10.70;99.90;;;;;;5127779;27;20043;-56
2023/09/22 07:48:53;;;;;;;2.65;1.30;;;10.70;99.90;;;;;;5125490;27;20682;-55
2023/09/22 07:51:22;;;;;;;5.80;0.90;;;10.70;99.90;;;;;;5111442;27;20079;-55
2023/09/22 07:53:50;;;;;;;4.47;1.25;;;10.70;99.90;;;;;;5108389;27;20093;-56
2023/09/22 07:56:18;;;;;;;7.05;1.05;;;10.80;99.90;;;;;;5106621;28;20039;-57
2023/09/22 07:58:46;;;;;;;7.43;1.65;;;10.80;99.90;;;;;;5088191;28;20059;-56
2023/09/22 08:01:29;;;;;;;5.55;1.35;;;10.80;99.90;;;;;;5105555;28;20415;-57
2023/09/22 08:03:57;;;;;;;7.50;1.27;;;10.90;99.90;;;;;;5104645;28;20055;-57
2023/09/22 08:06:27;;;;;;;5.38;1.10;;;11.00;99.90;;;;;;5103712;27;20055;-57
2023/09/22 08:08:54;;;;;;;3.95;1.40;;;11.00;99.90;;;;;;5091918;28;20040;-57
2023/09/22 08:11:22;;;;;;;2.70;1.35;;;11.10;99.90;;;;;;5092524;28;20044;-56
2023/09/22 08:13:50;;;;;;;3.05;1.20;;;11.10;99.90;;;;;;5094192;28;20275;-55
2023/09/22 08:16:18;;;;;;;6.63;1.35;;;11.10;99.90;;;;;;5067819;28;20044;-56
2023/09/22 08:18:46;;;;;;;6.70;1.55;;;11.30;99.90;;;;;;5091063;27;20479;-56
2023/09/22 08:21:14;;;;;;;3.78;1.27;;;11.30;99.90;;;;;;5098129;28;20036;-56
2023/09/22 08:23:42;;;;;;;6.18;1.65;;;11.30;99.90;;;;;;5106019;27;20066;-56
2023/09/22 08:26:18;;;;;;;12.50;1.30;;;11.30;99.90;;;;;;5087829;28;20483;-56
2023/09/22 08:28:47;;;;;;;5.15;1.00;;;11.40;99.90;;;;;;5090992;28;20548;-57
2023/09/22 08:31:15;;;;;;;6.22;1.00;;;11.40;99.90;;;;;;5092538;28;20040;-57
2023/09/22 08:33:42;;;;;;;4.70;1.00;;;11.40;99.90;;;;;;5110297;27;20039;-58
2023/09/22 08:36:11;;;;;;;4.95;1.08;;;11.50;99.90;;;;;;5113951;27;20188;-57
2023/09/22 08:38:38;;;;;;;2.08;0.73;;;11.50;99.90;;;;;;5099925;27;20043;-56
2023/09/22 08:41:06;;;;;;;4.80;0.93;;;11.60;99.90;;;;;;5097749;28;20059;-58
2023/09/22 08:43:35;;;;;;;7.57;1.23;;;11.70;99.90;;;;;;5107439;27;20054;-57
2023/09/22 08:46:03;;;;;;;2.83;1.75;;;11.80;99.90;;;;;;5117536;27;20530;-56
2023/09/22 08:48:32;;;;;;;5.72;1.60;;;11.80;99.90;;;;;;5108557;28;20053;-57
2023/09/22 08:51:00;;;;;;;6.55;1.73;;;11.90;99.90;;;;;;5093040;28;20635;-57
2023/09/22 08:53:29;;;;;;;5.32;1.70;;;12.00;99.90;;;;;;5107790;27;20056;-56
2023/09/22 08:55:57;;;;;;;5.20;2.10;;;12.10;99.90;;;;;;5108788;28;20040;-57
2023/09/22 08:58:25;;;;;;;7.22;1.63;;;12.10;99.90;;;;;;5107400;28;20059;-57
2023/09/22 09:00:53;;;;;;;4.60;1.33;;;12.20;99.90;;;;;;5099302;28;20507;-58
2023/09/22 09:03:21;;;;;;;7.68;1.42;;;12.30;99.90;;;;;;5117124;27;20039;-58
2023/09/22 09:05:49;;;;;;;6.82;1.55;;;12.40;99.90;;;;;;5113184;27;20043;-57
2023/09/22 09:08:21;;;;;;;3.35;1.00;;;12.50;99.90;;;;;;5097556;27;20050;-58
2023/09/22 09:10:49;;;;;;;4.00;1.40;;;12.50;99.90;;;;;;5095482;28;20044;-57
2023/09/22 09:13:19;;;;;;;7.15;1.00;;;12.60;99.90;;;;;;5104840;28;20044;-56
2023/09/22 09:15:48;;;;;;;5.57;1.25;;;12.70;99.90;;;;;;5100221;28;20044;-56
2023/09/22 09:18:22;;;;;;;3.07;0.87;;;12.80;99.90;;;;;;5096789;28;20039;-57
2023/09/22 09:21:09;;;;;;;3.38;1.10;;;13.00;99.90;;;;;;5104200;28;20070;-56
2023/09/22 09:23:51;;;;;;;9.07;1.45;;;13.10;99.90;;;;;;5098635;28;20411;-56
2023/09/22 09:26:37;;;;;;;9.93;2.53;;;13.20;99.90;;;;;;5088322;28;20048;-56
2023/09/22 09:29:04;;;;;;;2.03;0.98;;;13.30;99.90;;;;;;5100118;28;20051;-57
2023/09/22 09:31:45;;;;;;;4.32;0.95;;;13.40;99.90;;;;;;5088206;28;20055;-57
2023/09/22 09:34:16;;;;;;;7.00;1.45;;;13.60;99.90;;;;;;5113229;28;20050;-57
2023/09/22 09:36:44;;;;;;;4.53;1.17;;;13.70;99.90;;;;;;5122696;27;20491;-57
2023/09/22 09:39:12;;;;;;;3.67;1.48;;;13.90;99.90;;;;;;5101975;28;20048;-56
2023/09/22 09:41:43;;;;;;;3.20;1.02;;;14.10;99.90;;;;;;5105459;28;20047;-56
2023/09/22 09:44:10;;;;;;;6.13;1.42;;;14.30;99.90;;;;;;5103569;28;20044;-56
2023/09/22 09:46:42;;;;;;;2.85;1.10;;;14.40;99.90;;;;;;5090166;28;20509;-56
2023/09/22 09:49:11;;;;;;;5.22;1.17;;;14.50;99.90;;;;;;5112888;28;20044;-56
2023/09/22 09:51:44;;;;;;;3.00;0.85;;;14.60;99.90;;;;;;5106504;28;20050;-57
2023/09/22 09:54:15;;;;;;;3.72;0.65;;;14.80;99.90;;;;;;5101968;28;20047;-57
2023/09/22 09:56:44;;;;;;;3.22;0.90;;;14.90;99.90;;;;;;5087304;28;20048;-56
2023/09/22 09:59:13;;;;;;;3.55;1.25;;;14.90;99.90;;;;;;5119821;28;20055;-56
2023/09/22 10:01:42;;;;;;;3.40;1.10;;;14.80;99.90;;;;;;5127909;28;20074;-56
2023/09/22 10:04:11;;;;;;;2.90;1.15;;;14.70;99.90;;;;;;5097355;28;20051;-56
2023/09/22 10:06:39;;;;;;;1.92;0.77;;;14.70;99.90;;;;;;5103721;28;20056;-56
2023/09/22 10:09:19;;;;;;;6.45;0.82;;;14.70;99.90;;;;;;5104801;28;20046;-56
2023/09/22 10:11:48;;;;;;;4.88;1.17;;;14.70;99.90;;;;;;5098755;28;20040;-56
2023/09/22 10:14:43;;;;;;;4.22;1.33;;;14.70;99.90;;;;;;5104463;27;20047;-56
2023/09/22 10:17:22;;;;;;;4.35;1.10;;;14.70;99.90;;;;;;5089654;28;20537;-57
2023/09/22 10:19:51;;;;;;;4.10;1.08;;;14.70;99.90;;;;;;5102739;28;20050;-56
2023/09/22 10:22:20;;;;;;;10.10;1.63;;;14.70;99.90;;;;;;5106307;28;20048;-56
2023/09/22 10:25:13;;;;;;;4.97;1.10;;;14.80;99.90;;;;;;5105165;27;20062;-57
2023/09/22 10:27:57;;;;;;;5.68;1.05;;;14.80;99.90;;;;;;5101361;28;20056;-56
2023/09/22 10:30:43;;;;;;;3.15;0.82;;;14.90;99.90;;;;;;5099117;28;20051;-57
2023/09/22 10:33:26;;;;;;;1.98;0.70;;;14.90;99.90;;;;;;5094689;28;20056;-57
2023/09/22 10:35:54;;;;;;;5.13;0.85;;;15.00;99.90;;;;;;5119115;27;20047;-56
2023/09/22 10:38:22;;;;;;;5.15;0.80;;;15.00;99.90;;;;;;5110849;27;20055;-56
2023/09/22 10:40:58;;;;;;;3.67;0.55;;;15.10;99.90;;;;;;5109777;28;20039;-57
2023/09/22 10:43:27;;;;;;;6.10;0.82;;;15.10;99.90;;;;;;5111185;27;20043;-57
2023/09/22 10:45:55;;;;;;;2.63;0.70;;;15.10;99.90;;;;;;5097202;27;20051;-57
2023/09/22 10:48:29;;;;;;;6.63;1.50;;;15.10;99.90;;;;;;5099301;28;20048;-57
2023/09/22 10:50:57;;;;;;;5.97;1.30;;;15.10;99.90;;;;;;5091363;27;20058;-57
2023/09/22 10:53:27;;;;;;;5.80;0.80;;;15.10;99.90;;;;;;5102293;28;20062;-56
2023/09/22 10:55:57;;;;;;;13.48;1.35;;;15.10;99.90;;;;;;5127206;27;20047;-56
2023/09/22 10:58:26;;;;;;;4.63;1.00;;;15.10;99.90;;;;;;5121967;27;20048;-56
2023/09/22 11:01:08;;;;;;;3.08;0.77;;;15.10;99.90;;;;;;5111026;28;20477;-56
2023/09/22 11:03:37;;;;;;;2.63;0.38;;;15.00;99.90;;;;;;5111116;28;20054;-57
2023/09/22 11:06:06;;;;;;;2.05;0.60;;;15.00;99.90;;;;;;5125438;27;20043;-56
2023/09/22 11:08:53;;;;;;;2.30;0.52;;;15.20;99.90;;;;;;5117000;27;20130;-56
2023/09/22 11:11:21;;;;;;;1.27;0.40;;;15.40;99.90;;;;;;5110913;28;20044;-56
2023/09/22 11:13:52;;;;;;;2.75;0.80;;;15.60;99.90;;;;;;5110559;28;20043;-58
2023/09/22 11:16:21;;;;;;;2.30;0.50;;;15.70;99.90;;;;;;5110790;28;20046;-57
2023/09/22 11:18:49;;;;;;;3.15;0.40;;;15.80;99.90;;;;;;5110074;28;20491;-57
2023/09/22 11:21:16;;;;;;;1.42;0.30;;;15.90;99.90;;;;;;5110946;28;20040;-56
2023/09/22 11:23:44;;;;;;;3.88;0.30;;;15.80;99.90;;;;;;5106012;27;20047;-56
2023/09/22 11:26:14;;;;;;;2.83;0.75;;;15.90;99.90;;;;;;5126293;27;20039;-57
2023/09/22 11:28:45;;;;;;;2.57;0.40;;;15.80;99.90;;;;;;5108595;28;20052;-56
2023/09/22 11:31:18;;;;;;;5.57;0.57;;;15.80;99.90;;;;;;5110620;28;20051;-57
2023/09/22 11:34:03;;;;;;;2.15;0.60;;;15.80;99.90;;;;;;5115176;27;20043;-56
2023/09/22 11:36:48;;;;;;;1.13;0.22;;;15.90;99.90;;;;;;5128613;27;20043;-57
2023/09/22 11:39:30;;;;;;;6.53;0.60;;;16.00;99.90;;;;;;5097583;27;20044;-57
2023/09/22 11:41:58;;;;;;;4.18;0.90;;;16.00;99.90;;;;;;5101520;28;20050;-57
2023/09/22 11:44:26;;;;;;;7.80;0.60;;;16.10;99.90;;;;;;5111880;27;20047;-57
2023/09/22 11:46:54;;;;;;;4.22;0.70;;;16.20;99.90;;;;;;5110372;28;20440;-57
2023/09/22 11:49:22;;;;;;;6.43;0.75;;;16.20;99.90;;;;;;5110418;28;20047;-59
2023/09/22 11:51:54;;;;;;;2.97;0.68;;;16.30;99.90;;;;;;5110731;28;20048;-56
2023/09/22 11:54:24;;;;;;;1.92;0.28;;;16.30;99.90;;;;;;5104570;27;20055;-58
2023/09/22 11:56:58;;;;;;;1.77;0.38;;;16.30;99.90;;;;;;5110180;28;20062;-57
2023/09/22 11:59:48;;;;;;;4.20;0.45;;;16.40;99.90;;;;;;5109857;28;20402;-57
2023/09/22 12:02:16;;;;;;;3.00;0.50;;;16.30;99.90;;;;;;5110831;27;20050;-57
2023/09/22 12:04:43;;;;;;;1.77;0.35;;;16.50;99.90;;;;;;5129095;27;20051;-56
2023/09/22 12:07:12;;;;;;;2.05;0.43;;;16.50;99.90;;;;;;5103340;28;20059;-57
2023/09/22 12:09:40;;;;;;;1.45;0.30;;;16.50;99.90;;;;;;5092266;28;20048;-56
2023/09/22 12:12:08;;;;;;;0.50;0.30;;;16.50;99.90;;;;;;5103390;27;20044;-57
2023/09/22 12:14:35;;;;;;;2.70;0.52;;;16.50;99.90;;;;;;5093778;27;20058;-56
2023/09/22 12:17:03;;;;;;;4.70;0.65;;;16.50;99.90;;;;;;5094297;28;20048;-56
2023/09/22 12:19:31;;;;;;;1.63;0.22;;;16.50;99.90;;;;;;5107965;28;20051;-56
2023/09/22 12:22:00;;;;;;;4.88;0.50;;;16.80;99.90;;;;;;5088792;28;20410;-56
2023/09/22 12:24:29;;;;;;;6.40;0.40;;;17.00;99.90;;;;;;5101843;27;20039;-56
2023/09/22 12:26:57;;;;;;;2.10;0.32;;;17.00;99.90;;;;;;5094142;28;20433;-57
2023/09/22 12:29:26;;;;;;;6.28;0.70;;;16.90;99.90;;;;;;5096972;27;20043;-57
2023/09/22 12:31:54;;;;;;;2.47;0.50;;;16.80;99.90;;;;;;5092417;27;20542;-56
2023/09/22 12:34:21;;;;;;;3.35;0.70;;;16.70;99.90;;;;;;5101544;27;20051;-56
2023/09/22 12:36:49;;;;;;;2.80;0.50;;;16.70;99.90;;;;;;5129727;27;20054;-56
2023/09/22 12:39:18;;;;;;;3.25;0.60;;;16.70;99.90;;;;;;5111558;27;20059;-56
2023/09/22 12:41:46;;;;;;;1.15;0.32;;;16.60;99.90;;;;;;5109809;28;20051;-58
2023/09/22 12:44:14;;;;;;;1.88;0.38;;;16.60;99.90;;;;;;5108114;28;20039;-59
2023/09/22 12:46:42;;;;;;;2.67;0.40;;;16.70;99.90;;;;;;5104405;28;20046;-57
2023/09/22 12:49:10;;;;;;;2.42;0.40;;;17.10;99.90;;;;;;5102072;28;20483;-57
2023/09/22 12:51:37;;;;;;;5.25;0.43;;;17.60;99.90;;;;;;5088050;28;20044;-57
2023/09/22 12:54:06;;;;;;;2.47;0.45;;;18.10;99.90;;;;;;5100306;28;20047;-56
2023/09/22 12:56:34;;;;;;;2.13;0.50;;;18.40;99.90;;;;;;5102786;27;20036;-57
2023/09/22 12:59:02;;;;;;;2.92;0.40;;;18.70;99.90;;;;;;5099779;27;20044;-58
2023/09/22 13:01:29;;;;;;;2.72;0.57;;;18.70;99.90;;;;;;5093777;28;20048;-57